Neil Armstrong — WARL — position and weather

sailwx.info

Track history (hours):
 
Tides and Currents Weather Stations Pressure Air Temp Water Temp Dewpoint Dewpoint Depression Visibility Wind Speed Wind Dir Waves Ship Positions

Oceanographic research ship Neil Armstrong (United States)

Owner: Woods Hole Oceanographic Institution, Woods Hole, MA. More information available from US FCC via Universal Licensing System and Coast Guard Vessel Documentation Center.

Last reported at 2018-Jan-25 13:00 UTC. Time now 2018-Feb-21 03:36 UTC.
Position N 41°30' W 070°42'.
Warning: this ship's position is 26 days out of date.

Length 72 m; draft 4.4 m.

Type: Ship. MMSI: 338767000.

Wind from 290 at 12 knots

Barometer 1023.7 mb
Air temperature -4.7 ° C
Dewpoint -12.1 ° C
Water temperature 1.7 ° C

Date/timePositionNaut miles runAvg speedWind from/ knotsBaromVisibWave heightAir tempDewpointWater temp
2018-Jan-25 13:00N 41°30' W 070°42'0 0.0 290 / 121023.7 -4.7-12.1 1.7
2018-Jan-25 12:00N 41°30' W 070°42'0 0.0 310 / 101022.4 -4.7-11.4 1.4
2018-Jan-25 11:00N 41°30' W 070°42'0 0.0 310 / 91021.4 -4.5-11.7 1.5
2018-Jan-25 10:00N 41°30' W 070°42'0 0.0 330 / 51020.4 -4.3-12.2 1.6
2018-Jan-25 09:00N 41°30' W 070°42'0 0.0 350 / 71019.7 -3.9-12.0 1.6
2018-Jan-25 08:00N 41°30' W 070°42'0 0.0 020 / 81018.7 -3.0-10.5 1.4
2018-Jan-25 07:00N 41°30' W 070°42'0 0.0 320 / 101018.0 -2.5-9.3 1.5
2018-Jan-25 06:00N 41°30' W 070°42'0 0.0 330 / 101017.8 -1.9-9.6 1.4
2018-Jan-25 05:00N 41°30' W 070°42'0 0.0 300 / 51018.3 -1.4-8.9 1.5
2018-Jan-25 04:00N 41°30' W 070°42'0 0.0 300 / 81018.2 -1.0-8.5 1.7
2018-Jan-25 03:00N 41°30' W 070°42'0 0.0 310 / 101017.6 -0.7-8.0 1.7
2018-Jan-25 02:00N 41°30' W 070°42'0 0.0 300 / 111016.7 -0.2-7.7 1.9
2018-Jan-25 01:00N 41°30' W 070°42'0 0.0 290 / 151015.9 0.2-7.4 1.8
2018-Jan-25 00:00N 41°30' W 070°42'0 0.0 300 / 111015.4 0.9-6.5 1.8
2018-Jan-24 23:00N 41°30' W 070°42'0 0.0 300 / 171014.4 1.8-5.8 1.8
2018-Jan-24 22:00N 41°30' W 070°42'0 0.0 290 / 91013.2 2.6-6.0 1.8
2018-Jan-24 21:00N 41°30' W 070°42'7 7.5 290 / 161011.7 3.4-4.9 1.8
2018-Jan-24 20:00N 41°24' W 070°48'0 0.0 290 / 161011.2 3.5-4.2 3.0
2018-Jan-24 19:00N 41°24' W 070°48'0 0.0 300 / 221009.8 3.4-5.5 3.0
2018-Jan-24 18:00N 41°24' W 070°48'0 0.0 300 / 231009.1 3.3-4.9 2.1
2018-Jan-24 17:00N 41°24' W 070°48'0 0.0 290 / 271009.8 3.6-1.7 1.8
2018-Jan-24 16:00N 41°24' W 070°48'0 0.0 300 / 241009.5 4.1-3.8 1.8
2018-Jan-24 15:00N 41°24' W 070°48'0 0.0 280 / 191009.8 4.6-1.3 1.8
2018-Jan-24 14:00N 41°24' W 070°48'7 7.5 270 / 231008.5 4.4-0.1 2.1
2018-Jan-24 13:00N 41°30' W 070°42'0 0.0 250 / 151008.2 3.6-0.1 1.8
2018-Jan-24 12:00N 41°30' W 070°42'0 0.0 250 / 151007.6 3.8-0.2 1.7
2018-Jan-24 11:00N 41°30' W 070°42'0 0.0 250 / 181006.3 4.1-0.2 1.6
2018-Jan-24 10:00N 41°30' W 070°42'0 0.0 240 / 181005.6 4.4-0.4 1.5
2018-Jan-24 09:00N 41°30' W 070°42'0 0.0 250 / 151005.0 4.9-0.0 1.6
2018-Jan-24 08:00N 41°30' W 070°42'0 0.0 240 / 131004.3 5.0 0.5 1.5
2018-Jan-24 07:00N 41°30' W 070°42'0 0.0 250 / 101004.2 4.1 1.4 1.5
2018-Jan-24 06:00N 41°30' W 070°42'0 0.0 250 / 141003.6 4.6 1.8 1.6
2018-Jan-24 05:00N 41°30' W 070°42'0 0.0 250 / 131002.9 5.1 2.1 1.6
2018-Jan-24 04:00N 41°30' W 070°42'0 0.0 260 / 161002.3 6.1 2.8 1.7
2018-Jan-24 03:00N 41°30' W 070°42'0 0.0 260 / 111001.7 6.4 5.0 1.8
2018-Jan-24 02:00N 41°30' W 070°42'0 0.0 250 / 121001.2 6.5 4.8 1.8
2018-Jan-24 01:00N 41°30' W 070°42'0 0.0 250 / 161000.4 6.9 5.1 1.8
2018-Jan-24 00:00N 41°30' W 070°42'0 0.0 190 / 41000.8 7.3 5.7 1.9
2018-Jan-23 23:00N 41°30' W 070°42'0 0.0 200 / 151000.0 9.3 7.8 1.8
2018-Jan-23 22:00N 41°30' W 070°42'0 0.0 220 / 101000.4 8.6 7.1 1.7
2018-Jan-23 21:00N 41°30' W 070°42'0 0.0 190 / 17999.6 9.7 8.1 1.7
2018-Jan-23 20:00N 41°30' W 070°42'0 0.0 180 / 251000.3 10.2 8.3 1.5
2018-Jan-23 19:00N 41°30' W 070°42'0 0.0 180 / 241002.5 9.8 7.8 1.4
2018-Jan-23 18:00N 41°30' W 070°42'0 0.0 180 / 201004.3 9.6 8.0 1.4
2018-Jan-23 17:00N 41°30' W 070°42'0 0.0 180 / 211006.7 9.0 7.1 1.4
2018-Jan-23 16:00N 41°30' W 070°42'0 0.0 170 / 201008.6 8.6 6.9 1.3
2018-Jan-23 15:00N 41°30' W 070°42'0 0.0 170 / 151010.9 8.6 7.1 1.4
2018-Jan-23 14:00N 41°30' W 070°42'0 0.0 170 / 171011.8 8.0 6.3 1.3
2018-Jan-23 13:00N 41°30' W 070°42'0 0.0 170 / 191012.5 8.4 6.5 1.3
2018-Jan-23 12:00N 41°30' W 070°42'0 0.0 170 / 191013.8 9.1 6.6 1.3
2018-Jan-23 11:00N 41°30' W 070°42'0 0.0 160 / 231013.9 10.4 7.3 1.2
2018-Jan-23 10:00N 41°30' W 070°42'0 0.0 170 / 171015.3 8.5 5.4 1.2
2018-Jan-23 09:00N 41°30' W 070°42'0 0.0 160 / 141016.4 8.0 6.1 1.2
2018-Jan-23 08:00N 41°30' W 070°42'0 0.0 140 / 61017.7 8.0 6.5 1.2
2018-Jan-23 07:00N 41°30' W 070°42'0 0.0 150 / 141018.6 7.4 5.9 1.2
2018-Jan-23 06:00N 41°30' W 070°42'0 0.0 110 / 41019.5 6.6 4.9 1.1
2018-Jan-23 05:00N 41°30' W 070°42'0 0.0 120 / 41019.7 4.7 3.1 1.1
2018-Jan-23 04:00N 41°30' W 070°42'0 0.0 110 / 121020.5 3.8 2.3 1.1
2018-Jan-23 03:00N 41°30' W 070°42'0 0.0 110 / 101021.7 3.1 1.7 1.1
2018-Jan-23 02:00N 41°30' W 070°42'0 0.0 110 / 121022.5 3.2 1.8 1.2
2018-Jan-23 01:00N 41°30' W 070°42'0 0.0 100 / 131023.1 3.1 1.7 1.2
2018-Jan-23 00:00N 41°30' W 070°42'0 0.0 100 / 121023.9 2.9 1.5 1.1
2018-Jan-22 23:00N 41°30' W 070°42'0 0.0 100 / 81024.1 3.7 2.2 1.2
2018-Jan-22 22:00N 41°30' W 070°42'0 0.0 090 / 141023.8 3.7 2.2 1.1
2018-Jan-22 21:00N 41°30' W 070°42'0 0.0 070 / 51024.2 3.7 2.2 1.1
2018-Jan-22 20:00N 41°30' W 070°42'0 0.0 080 / 41024.1 3.6 2.1 1.2
2018-Jan-22 19:00N 41°30' W 070°42'0 0.0 110 / 61023.4 3.1 1.6 1.1
2018-Jan-22 18:00N 41°30' W 070°42'0 0.0 100 / 61023.9 3.0 1.5 1.0
2018-Jan-22 17:00N 41°30' W 070°42'0 0.0 080 / 41024.6 2.9 1.3 1.1
2018-Jan-22 16:00N 41°30' W 070°42'0 0.0 100 / 51025.3 3.1 1.3 1.0
2018-Jan-22 15:00N 41°30' W 070°42'0 0.0 120 / 51025.3 3.3 1.3 1.0
2018-Jan-22 14:00N 41°30' W 070°42'0 0.0 140 / 31025.0 2.9 0.9 1.2
2018-Jan-22 13:00N 41°30' W 070°42'0 0.0 110 / 41024.2 2.4 0.2 1.1
2018-Jan-22 12:00N 41°30' W 070°42'0 0.0 110 / 51023.5 2.6-0.0 1.2
2018-Jan-22 11:00N 41°30' W 070°42'0 0.0 100 / 51023.1 2.6-0.4 1.1
2018-Jan-22 10:00N 41°30' W 070°42'0 0.0 100 / 31023.1 3.8-1.2 1.1
2018-Jan-22 09:00N 41°30' W 070°42'0 0.0 120 / 11022.7 3.5-1.4 1.1
2018-Jan-22 08:00N 41°30' W 070°42'0 0.0 140 / 21022.8 3.0-1.3 1.0
2018-Jan-22 07:00N 41°30' W 070°42'0 0.0 140 / 31022.8 3.0-1.7 0.9
2018-Jan-22 06:00N 41°30' W 070°42'0 0.0 130 / 31022.5 3.0-1.9 0.9
2018-Jan-22 05:00N 41°30' W 070°42'0 0.0 140 / 21023.2 3.0-1.6 0.9
2018-Jan-22 04:00N 41°30' W 070°42'0 0.0 140 / 41023.0 2.6-1.5 0.9
2018-Jan-22 03:00N 41°30' W 070°42'0 0.0 160 / 31023.0 2.8-0.5 0.9
2018-Jan-22 02:00N 41°30' W 070°42'0 0.0 140 / 31022.8 2.5-0.5 1.0
2018-Jan-22 01:00N 41°30' W 070°42'0 0.0 160 / 21022.4 3.2-0.0 1.2
2018-Jan-22 00:00N 41°30' W 070°42'0 0.0 160 / 31022.3 3.4-0.4 1.2
2018-Jan-21 23:00N 41°30' W 070°42'0 0.0 210 / 21021.7 4.0-0.4 1.2
2018-Jan-21 22:00N 41°30' W 070°42'0 0.0 160 / 31021.2 4.4-0.9 1.2
2018-Jan-21 21:00N 41°30' W 070°42'0 0.0 210 / 11020.6 5.6-1.3 1.2
2018-Jan-21 20:00N 41°30' W 070°42'0 0.0 170 / 21020.2 5.9-1.1 1.1
2018-Jan-21 19:00N 41°30' W 070°42'0 0.0 230 / 31020.0 6.8-2.4 1.1
2018-Jan-21 18:00N 41°30' W 070°42'0 0.0 270 / 21019.7 5.6-2.4 0.8
2018-Jan-21 17:00N 41°30' W 070°42'0 0.0 300 / 51020.2 6.2-2.2 2.1
2018-Jan-21 16:00N 41°30' W 070°42'0 0.0 310 / 81021.0 5.0-2.4 1.8
2018-Jan-21 15:00N 41°30' W 070°42'7 7.5 300 / 91021.4 5.1-2.4 1.8
2018-Jan-21 14:00N 41°24' W 070°48'5 4.5 260 / 91020.8 3.6-0.8 2.8
2018-Jan-21 13:00N 41°24' W 070°54'1312.8 270 / 101019.7 4.1-1.3 3.4
2018-Jan-21 12:00N 41°12' W 071°00'6 6.0 280 / 121019.7 4.7-1.3 3.0
2018-Jan-21 11:00N 41°06' W 071°00'6 6.0 290 / 121018.9 5.8-0.7 5.2
2018-Jan-21 10:00N 41°00' W 071°00'6 6.0 280 / 111018.3 6.4-0.2 5.0
2018-Jan-21 09:00N 40°54' W 071°00'1212.0 290 / 111018.0 6.8 0.7 6.0
2018-Jan-21 08:00N 40°42' W 071°00'6 6.0 330 / 151017.3 7.5 0.1 6.8
2018-Jan-21 07:00N 40°36' W 071°00'6 6.0 320 / 141016.8 8.2 0.4 5.6
2018-Jan-21 06:00N 40°30' W 071°00'1212.0 320 / 141016.3 7.7 0.5 5.8
2018-Jan-21 05:00N 40°18' W 071°00'5 4.6 280 / 131016.4 7.5 1.7 6.1
2018-Jan-21 04:00N 40°18' W 071°06'1110.9 300 / 151016.3 7.9 1.4 7.1
2018-Jan-21 03:00N 40°12' W 071°18'1515.0 290 / 191016.3 8.8 1.6 8.1
2018-Jan-21 02:00N 40°06' W 071°36'1111.0 290 / 271016.4 9.2 1.5 8.6
2018-Jan-21 01:00N 40°00' W 071°48'1111.0 290 / 191016.0 9.4 1.5 8.9
2018-Jan-21 00:00N 39°54' W 072°00'1515.1 280 / 171015.6 9.3 3.4 9.5
2018-Jan-20 23:00N 39°48' W 072°18'9 9.2 250 / 211014.4 9.2 2.7 9.4
2018-Jan-20 22:00N 39°48' W 072°30'1111.0 250 / 211014.0 9.0 2.4 9.1
2018-Jan-20 21:00N 39°42' W 072°42'1515.1 240 / 221013.3 9.0 1.6 9.5
2018-Jan-20 20:00N 39°36' W 073°00'1111.0 240 / 161013.1 8.8 1.2 9.5
2018-Jan-20 19:00N 39°30' W 073°12'1111.0 240 / 151013.0 7.4 0.3 7.0
2018-Jan-20 18:00N 39°24' W 073°24'1111.1 230 / 201013.5 6.4-0.7 7.5
2018-Jan-20 17:00N 39°18' W 073°36'1515.2 230 / 171014.7 5.7-1.3 6.6
2018-Jan-20 16:00N 39°06' W 073°48'1312.9 230 / 171015.8 5.5-1.6 5.3
2018-Jan-20 15:00N 38°54' W 073°54'8 7.6 250 / 181016.7 5.9-1.7 6.2
2018-Jan-20 14:00N 38°48' W 074°00'1515.2 230 / 201016.7 6.1-2.1 6.9
2018-Jan-20 13:00N 38°36' W 074°12'1312.9 240 / 201016.5 6.1-1.2 7.6
2018-Jan-20 12:00N 38°24' W 074°18'1312.9 240 / 211016.8 6.2-2.8 7.7
2018-Jan-20 11:00N 38°12' W 074°24'1312.9 240 / 191016.8 6.7-1.6 8.1
2018-Jan-20 10:00N 38°00' W 074°30'1212.0 240 / 181016.8 7.3-1.8 7.3
2018-Jan-20 09:00N 37°48' W 074°30'1312.9 230 / 201016.9 7.9-1.1 7.8
2018-Jan-20 08:00N 37°36' W 074°36'1212.0 240 / 221017.8 8.8-1.3 9.2
2018-Jan-20 07:00N 37°24' W 074°36'1212.0 240 / 181018.6 9.1-1.9 8.9
2018-Jan-20 06:00N 37°12' W 074°36'1212.0 250 / 231018.9 10.0-0.214.3
2018-Jan-20 05:00N 37°00' W 074°36'1312.9 250 / 161019.6 10.6-1.516.8
2018-Jan-20 04:00N 36°48' W 074°42'1212.0 260 / 221020.0 11.3-1.818.6
2018-Jan-20 03:00N 36°36' W 074°42'1312.9 260 / 201020.5 11.9-1.019.5
2018-Jan-20 02:00N 36°24' W 074°36'1312.9 260 / 251020.6 12.4 1.118.5
2018-Jan-20 01:00N 36°12' W 074°42'6 6.0 250 / 191020.1 12.6-0.218.4
2018-Jan-20 00:00N 36°06' W 074°42'1212.0 240 / 231019.7 12.6-0.318.9
2018-Jan-19 23:00N 35°54' W 074°42'1212.0 240 / 231019.8 11.8 1.419.4
2018-Jan-19 22:00N 35°42' W 074°42'1212.0 240 / 231020.3 12.3 0.819.2
2018-Jan-19 21:00N 35°30' W 074°42'1313.0 240 / 231020.9 11.9 1.121.6
2018-Jan-19 20:00N 35°18' W 074°48'8 7.7 270 / 181021.2 11.4-4.123.7
2018-Jan-19 19:00N 35°12' W 074°54'10 9.8 280 / 141021.8 10.2-2.323.7
2018-Jan-19 18:00N 35°12' W 075°06'8 7.7 270 / 151021.9 9.3-3.223.1
2018-Jan-19 17:00N 35°18' W 075°00'5 4.9 280 / 181022.4 8.8-3.523.0
2018-Jan-19 16:00N 35°18' W 074°54'6 6.0 270 / 161023.5 7.6-2.322.6
2018-Jan-19 15:00N 35°24' W 074°54'8 7.7 290 / 181023.5 7.2-1.118.6
2018-Jan-19 14:00N 35°30' W 074°48'6 6.0 280 / 171022.9 7.4 0.820.6
2018-Jan-19 13:00N 35°36' W 074°48'1212.0 270 / 161022.1 7.9-0.919.2
2018-Jan-19 12:00N 35°48' W 074°48'0 0.0 270 / 131021.7 6.3 0.819.3
2018-Jan-19 11:00N 35°48' W 074°48'5 4.9 280 / 81021.2 6.4-0.719.3
2018-Jan-19 10:00N 35°48' W 074°54'5 4.9 290 / 151021.4 6.1-0.418.7
2018-Jan-19 09:00N 35°48' W 075°00'5 4.9 320 / 141021.8 3.7-3.415.5
2018-Jan-19 08:00N 35°48' W 075°06'8 7.7 290 / 141022.2 2.3-3.7 7.9
2018-Jan-19 07:00N 35°42' W 075°12'5 4.9 250 / 191022.6 1.7-4.9 7.5
2018-Jan-19 06:00N 35°42' W 075°18'5 4.9 280 / 171022.7 1.0-4.9 5.1
2018-Jan-19 05:00N 35°42' W 075°24'8 7.7 270 / 131022.7 1.0-5.5 4.5
2018-Jan-19 04:00N 35°36' W 075°18'1212.0 280 / 191023.1 1.2-5.4 4.9
2018-Jan-19 03:00N 35°24' W 075°18'5 4.9 290 / 181023.3 2.5-3.6 7.2
2018-Jan-19 02:00N 35°24' W 075°12'8 7.7 290 / 231022.0 2.7-5.1 7.5
2018-Jan-19 01:00N 35°30' W 075°18'1212.0 280 / 201021.9 3.0-5.8 6.7
2018-Jan-19 00:00N 35°42' W 075°18'8 7.7 280 / 281021.0 2.7-7.8 6.1
2018-Jan-18 23:00N 35°48' W 075°12'6 6.0 270 / 301020.9 3.0-6.4 7.4
2018-Jan-18 22:00N 35°54' W 075°12'6 6.0 270 / 201020.2 2.9-7.2 7.8
2018-Jan-18 21:00N 36°00' W 075°12'1111.4 300 / 201020.1 1.7-4.5 8.1
2018-Jan-18 20:00N 36°06' W 075°24'1212.0 270 / 211020.0 1.0-5.5 7.5
2018-Jan-18 19:00N 36°18' W 075°24'1312.9 310 / 201020.2 0.3-9.4 6.9
2018-Jan-18 18:00N 36°30' W 075°30'0 0.0 300 / 241020.5 -0.5-7.9 6.6
2018-Jan-18 17:00N 36°30' W 075°30'0 0.0 320 / 241021.0 -1.6-7.6 6.6
2018-Jan-18 16:00N 36°30' W 075°30'0 0.0 320 / 281020.3 -1.8-5.8 6.7
2018-Jan-18 15:00N 36°30' W 075°30'0 0.0 340 / 281020.9 -1.8-6.7 6.9
2018-Jan-18 14:00N 36°30' W 075°30'8 7.7 320 / 241020.2 -2.3-6.0 7.3
2018-Jan-18 13:00N 36°24' W 075°24'8 7.7 320 / 221019.3 -2.3-5.9 7.7
2018-Jan-18 12:00N 36°18' W 075°18'0 0.0 320 / 211018.2 -2.1-5.1 8.3
2018-Jan-18 11:00N 36°18' W 075°18'5 4.8 350 / 431018.1 -2.5-5.1 8.7
2018-Jan-18 10:00N 36°18' W 075°12'8 7.7 340 / 451018.0 -2.1-4.7 8.8
2018-Jan-18 09:00N 36°12' W 075°06'0 0.0 180 / 241016.6 -0.9-2.8 9.8
2018-Jan-18 08:00N 36°12' W 075°06'8 7.7 160 / 271015.7 -0.4-2.410.7
2018-Jan-18 07:00N 36°06' W 075°00'0 0.0 1015.3 0.2-1.414.4
2018-Jan-18 06:00N 36°06' W 075°00'8 7.7 030 / 301014.4 3.2 1.417.5
2018-Jan-18 05:00N 36°00' W 074°54'5 4.9 020 / 391013.7 6.0 4.219.9
2018-Jan-18 04:00N 36°00' W 074°48'8 7.7 010 / 341015.5 7.1 4.620.2
2018-Jan-18 03:00N 35°54' W 074°42'5 4.9 010 / 331016.8 9.7 5.820.2
2018-Jan-18 02:00N 35°54' W 074°36'8 7.7 020 / 291017.2 10.3 5.819.7
2018-Jan-18 01:00N 35°48' W 074°30'5 4.9 010 / 231017.6 10.9 7.123.0
2018-Jan-18 00:00N 35°48' W 074°36'1111.4 020 / 201019.0 10.2 5.719.6
2018-Jan-17 23:00N 35°54' W 074°48'6 6.0 010 / 281019.5 10.0 5.819.9
2018-Jan-17 22:00N 36°00' W 074°48'6 6.0 1019.5 9.7 5.720.3
2018-Jan-17 21:00N 35°54' W 074°48'8 7.7 030 / 171019.8 9.5 5.220.2
2018-Jan-17 20:00N 35°48' W 074°54'8 7.7 010 / 161021.1 9.8 5.119.6
2018-Jan-17 19:00N 35°42' W 074°48'6 6.0 020 / 191020.9 10.1 5.119.3
2018-Jan-17 18:00N 35°36' W 074°48'0 0.0 010 / 121021.8 10.0 4.018.4
2018-Jan-17 17:00N 35°36' W 074°48'1515.5 360 / 121023.2 11.1 3.618.3
2018-Jan-17 16:00N 35°48' W 074°36'6 6.0 010 / 111023.9 11.3 3.619.3
2018-Jan-17 15:00N 35°42' W 074°36'0 0.0 020 / 111025.0 10.9 2.518.4
2018-Jan-17 14:00N 35°42' W 074°36'0 0.0 1024.8 10.7 2.018.3
2018-Jan-17 13:00N 35°42' W 074°36'5 4.9 360 / 141024.1 11.0 2.318.2
2018-Jan-17 12:00N 35°42' W 074°42'0 0.0 340 / 191024.6 10.7 4.319.4
2018-Jan-17 11:00N 35°42' W 074°42'1313.0 320 / 101024.1 10.5 1.218.1
2018-Jan-17 10:00N 35°30' W 074°48'1212.0 340 / 141024.3 10.7 2.422.4
2018-Jan-17 09:00N 35°18' W 074°48'0 0.0 340 / 131024.3 11.0 1.623.3
2018-Jan-17 08:00N 35°18' W 074°48'8 7.7 320 / 141024.5 11.2 1.423.2
2018-Jan-17 07:00N 35°12' W 074°54'1615.5 330 / 111024.8 10.6 3.523.7
2018-Jan-17 06:00N 35°00' W 075°06'8 7.8 330 / 91024.9 12.6 2.423.8
2018-Jan-17 05:00N 34°54' W 075°12'6 6.0 330 / 71025.8 11.7 2.823.9
2018-Jan-17 04:00N 34°48' W 075°12'8 7.8 320 / 91027.1 12.0 3.323.9
2018-Jan-17 03:00N 34°42' W 075°18'1211.6 310 / 81027.4 12.2 4.223.8
2018-Jan-17 02:00N 34°36' W 075°30'8 7.8 1027.5 12.3 5.123.8
2018-Jan-17 01:00N 34°30' W 075°36'8 7.8 350 / 61027.9 12.4 4.823.8
2018-Jan-17 00:00N 34°36' W 075°42'8 7.8 330 / 91027.9 11.7 5.222.7
2018-Jan-16 23:00N 34°42' W 075°48'8 7.8 350 / 101027.9 10.4 3.421.2
2018-Jan-16 22:00N 34°48' W 075°54'0 0.0 340 / 121027.7 9.6 4.320.6
2018-Jan-16 21:00N 34°48' W 075°54'0 0.0 330 / 101027.5 10.6 4.520.5
2018-Jan-16 20:00N 34°48' W 075°54'23 1.8 1027.3 10.0 3.720.4
2018-Jan-16 07:00N 35°00' W 075°30'8 7.8 350 / 161029.2 5.0 2.912.4
2018-Jan-16 06:00N 35°06' W 075°36'0 0.0 350 / 171029.1 3.7 1.810.5
2018-Jan-16 05:00N 35°06' W 075°36'8 7.8 350 / 201029.3 3.1 0.611.3
2018-Jan-16 04:00N 35°00' W 075°42'1211.5 350 / 201030.4 4.5 1.415.8
2018-Jan-16 03:00N 34°54' W 075°54'5 4.9 340 / 161030.6 5.1 2.018.1
2018-Jan-16 02:00N 34°54' W 076°00'1211.5 350 / 191030.3 5.5 1.818.2
2018-Jan-16 01:00N 34°48' W 076°12'0 0.0 350 / 191030.1 5.3 0.216.2
2018-Jan-16 00:00N 34°48' W 076°12'10 9.9 350 / 281029.2 5.8 0.215.9
2018-Jan-15 23:00N 34°48' W 076°00'5 4.9 350 / 201029.3 6.8 1.917.9
2018-Jan-15 22:00N 34°48' W 075°54'5 4.9 1028.2 7.6 3.619.5
2018-Jan-15 21:00N 34°48' W 075°48'5 4.9 360 / 271027.4 7.8 4.721.1
2018-Jan-15 20:00N 34°48' W 075°42'23 5.8 360 / 181027.8 6.8 5.122.0
2018-Jan-15 16:00N 35°00' W 075°18'0 0.0 360 / 351028.1 7.7 6.123.0
2018-Jan-15 15:00N 35°00' W 075°18'8 7.8 360 / 301028.1 8.3 6.623.0
2018-Jan-15 14:00N 35°06' W 075°12'8 7.8 340 / 341027.6 9.6 7.223.4
2018-Jan-15 13:00N 35°12' W 075°06'   360 / 281026.3 13.5 8.723.2
Track history (hours):
 
Tides and Currents Weather Stations Pressure Air Temp Water Temp Dewpoint Dewpoint Depression Visibility Wind Speed Wind Dir Waves Ship Positions

Oceanographic research ship Neil Armstrong (United States)

Owner: Woods Hole Oceanographic Institution, Woods Hole, MA. More information available from US FCC via Universal Licensing System and Coast Guard Vessel Documentation Center.

Last reported at 2018-Jan-25 13:00 UTC. Time now 2018-Feb-21 03:36 UTC.
Position N 41°30' W 070°42'.
Warning: this ship's position is 26 days out of date.

Length 72 m; draft 4.4 m.

Type: Ship. MMSI: 338767000.

Wind from 290 at 12 knots

Barometer 1023.7 mb
Air temperature -4.7 ° C
Dewpoint -12.1 ° C
Water temperature 1.7 ° C

Date/timePositionNaut miles runAvg speedWind from/ knotsBaromVisibWave heightAir tempDewpointWater temp
2018-Jan-25 13:00N 41°30' W 070°42'0 0.0 290 / 121023.7 -4.7-12.1 1.7
2018-Jan-25 12:00N 41°30' W 070°42'0 0.0 310 / 101022.4 -4.7-11.4 1.4
2018-Jan-25 11:00N 41°30' W 070°42'0 0.0 310 / 91021.4 -4.5-11.7 1.5
2018-Jan-25 10:00N 41°30' W 070°42'0 0.0 330 / 51020.4 -4.3-12.2 1.6
2018-Jan-25 09:00N 41°30' W 070°42'0 0.0 350 / 71019.7 -3.9-12.0 1.6
2018-Jan-25 08:00N 41°30' W 070°42'0 0.0 020 / 81018.7 -3.0-10.5 1.4
2018-Jan-25 07:00N 41°30' W 070°42'0 0.0 320 / 101018.0 -2.5-9.3 1.5
2018-Jan-25 06:00N 41°30' W 070°42'0 0.0 330 / 101017.8 -1.9-9.6 1.4
2018-Jan-25 05:00N 41°30' W 070°42'0 0.0 300 / 51018.3 -1.4-8.9 1.5
2018-Jan-25 04:00N 41°30' W 070°42'0 0.0 300 / 81018.2 -1.0-8.5 1.7
2018-Jan-25 03:00N 41°30' W 070°42'0 0.0 310 / 101017.6 -0.7-8.0 1.7
2018-Jan-25 02:00N 41°30' W 070°42'0 0.0 300 / 111016.7 -0.2-7.7 1.9
2018-Jan-25 01:00N 41°30' W 070°42'0 0.0 290 / 151015.9 0.2-7.4 1.8
2018-Jan-25 00:00N 41°30' W 070°42'0 0.0 300 / 111015.4 0.9-6.5 1.8
2018-Jan-24 23:00N 41°30' W 070°42'0 0.0 300 / 171014.4 1.8-5.8 1.8
2018-Jan-24 22:00N 41°30' W 070°42'0 0.0 290 / 91013.2 2.6-6.0 1.8
2018-Jan-24 21:00N 41°30' W 070°42'7 7.5 290 / 161011.7 3.4-4.9 1.8
2018-Jan-24 20:00N 41°24' W 070°48'0 0.0 290 / 161011.2 3.5-4.2 3.0
2018-Jan-24 19:00N 41°24' W 070°48'0 0.0 300 / 221009.8 3.4-5.5 3.0
2018-Jan-24 18:00N 41°24' W 070°48'0 0.0 300 / 231009.1 3.3-4.9 2.1
2018-Jan-24 17:00N 41°24' W 070°48'0 0.0 290 / 271009.8 3.6-1.7 1.8
2018-Jan-24 16:00N 41°24' W 070°48'0 0.0 300 / 241009.5 4.1-3.8 1.8
2018-Jan-24 15:00N 41°24' W 070°48'0 0.0 280 / 191009.8 4.6-1.3 1.8
2018-Jan-24 14:00N 41°24' W 070°48'7 7.5 270 / 231008.5 4.4-0.1 2.1
2018-Jan-24 13:00N 41°30' W 070°42'0 0.0 250 / 151008.2 3.6-0.1 1.8
2018-Jan-24 12:00N 41°30' W 070°42'0 0.0 250 / 151007.6 3.8-0.2 1.7
2018-Jan-24 11:00N 41°30' W 070°42'0 0.0 250 / 181006.3 4.1-0.2 1.6
2018-Jan-24 10:00N 41°30' W 070°42'0 0.0 240 / 181005.6 4.4-0.4 1.5
2018-Jan-24 09:00N 41°30' W 070°42'0 0.0 250 / 151005.0 4.9-0.0 1.6
2018-Jan-24 08:00N 41°30' W 070°42'0 0.0 240 / 131004.3 5.0 0.5 1.5
2018-Jan-24 07:00N 41°30' W 070°42'0 0.0 250 / 101004.2 4.1 1.4 1.5
2018-Jan-24 06:00N 41°30' W 070°42'0 0.0 250 / 141003.6 4.6 1.8 1.6
2018-Jan-24 05:00N 41°30' W 070°42'0 0.0 250 / 131002.9 5.1 2.1 1.6
2018-Jan-24 04:00N 41°30' W 070°42'0 0.0 260 / 161002.3 6.1 2.8 1.7
2018-Jan-24 03:00N 41°30' W 070°42'0 0.0 260 / 111001.7 6.4 5.0 1.8
2018-Jan-24 02:00N 41°30' W 070°42'0 0.0 250 / 121001.2 6.5 4.8 1.8
2018-Jan-24 01:00N 41°30' W 070°42'0 0.0 250 / 161000.4 6.9 5.1 1.8
2018-Jan-24 00:00N 41°30' W 070°42'0 0.0 190 / 41000.8 7.3 5.7 1.9
2018-Jan-23 23:00N 41°30' W 070°42'0 0.0 200 / 151000.0 9.3 7.8 1.8
2018-Jan-23 22:00N 41°30' W 070°42'0 0.0 220 / 101000.4 8.6 7.1 1.7
2018-Jan-23 21:00N 41°30' W 070°42'0 0.0 190 / 17999.6 9.7 8.1 1.7
2018-Jan-23 20:00N 41°30' W 070°42'0 0.0 180 / 251000.3 10.2 8.3 1.5
2018-Jan-23 19:00N 41°30' W 070°42'0 0.0 180 / 241002.5 9.8 7.8 1.4
2018-Jan-23 18:00N 41°30' W 070°42'0 0.0 180 / 201004.3 9.6 8.0 1.4
2018-Jan-23 17:00N 41°30' W 070°42'0 0.0 180 / 211006.7 9.0 7.1 1.4
2018-Jan-23 16:00N 41°30' W 070°42'0 0.0 170 / 201008.6 8.6 6.9 1.3
2018-Jan-23 15:00N 41°30' W 070°42'0 0.0 170 / 151010.9 8.6 7.1 1.4
2018-Jan-23 14:00N 41°30' W 070°42'0 0.0 170 / 171011.8 8.0 6.3 1.3
2018-Jan-23 13:00N 41°30' W 070°42'0 0.0 170 / 191012.5 8.4 6.5 1.3
2018-Jan-23 12:00N 41°30' W 070°42'0 0.0 170 / 191013.8 9.1 6.6 1.3
2018-Jan-23 11:00N 41°30' W 070°42'0 0.0 160 / 231013.9 10.4 7.3 1.2
2018-Jan-23 10:00N 41°30' W 070°42'0 0.0 170 / 171015.3 8.5 5.4 1.2
2018-Jan-23 09:00N 41°30' W 070°42'0 0.0 160 / 141016.4 8.0 6.1 1.2
2018-Jan-23 08:00N 41°30' W 070°42'0 0.0 140 / 61017.7 8.0 6.5 1.2
2018-Jan-23 07:00N 41°30' W 070°42'0 0.0 150 / 141018.6 7.4 5.9 1.2
2018-Jan-23 06:00N 41°30' W 070°42'0 0.0 110 / 41019.5 6.6 4.9 1.1
2018-Jan-23 05:00N 41°30' W 070°42'0 0.0 120 / 41019.7 4.7 3.1 1.1
2018-Jan-23 04:00N 41°30' W 070°42'0 0.0 110 / 121020.5 3.8 2.3 1.1
2018-Jan-23 03:00N 41°30' W 070°42'0 0.0 110 / 101021.7 3.1 1.7 1.1
2018-Jan-23 02:00N 41°30' W 070°42'0 0.0 110 / 121022.5 3.2 1.8 1.2
2018-Jan-23 01:00N 41°30' W 070°42'0 0.0 100 / 131023.1 3.1 1.7 1.2
2018-Jan-23 00:00N 41°30' W 070°42'0 0.0 100 / 121023.9 2.9 1.5 1.1
2018-Jan-22 23:00N 41°30' W 070°42'0 0.0 100 / 81024.1 3.7 2.2 1.2
2018-Jan-22 22:00N 41°30' W 070°42'0 0.0 090 / 141023.8 3.7 2.2 1.1
2018-Jan-22 21:00N 41°30' W 070°42'0 0.0 070 / 51024.2 3.7 2.2 1.1
2018-Jan-22 20:00N 41°30' W 070°42'0 0.0 080 / 41024.1 3.6 2.1 1.2
2018-Jan-22 19:00N 41°30' W 070°42'0 0.0 110 / 61023.4 3.1 1.6 1.1
2018-Jan-22 18:00N 41°30' W 070°42'0 0.0 100 / 61023.9 3.0 1.5 1.0
2018-Jan-22 17:00N 41°30' W 070°42'0 0.0 080 / 41024.6 2.9 1.3 1.1
2018-Jan-22 16:00N 41°30' W 070°42'0 0.0 100 / 51025.3 3.1 1.3 1.0
2018-Jan-22 15:00N 41°30' W 070°42'0 0.0 120 / 51025.3 3.3 1.3 1.0
2018-Jan-22 14:00N 41°30' W 070°42'0 0.0 140 / 31025.0 2.9 0.9 1.2
2018-Jan-22 13:00N 41°30' W 070°42'0 0.0 110 / 41024.2 2.4 0.2 1.1
2018-Jan-22 12:00N 41°30' W 070°42'0 0.0 110 / 51023.5 2.6-0.0 1.2
2018-Jan-22 11:00N 41°30' W 070°42'0 0.0 100 / 51023.1 2.6-0.4 1.1
2018-Jan-22 10:00N 41°30' W 070°42'0 0.0 100 / 31023.1 3.8-1.2 1.1
2018-Jan-22 09:00N 41°30' W 070°42'0 0.0 120 / 11022.7 3.5-1.4 1.1
2018-Jan-22 08:00N 41°30' W 070°42'0 0.0 140 / 21022.8 3.0-1.3 1.0
2018-Jan-22 07:00N 41°30' W 070°42'0 0.0 140 / 31022.8 3.0-1.7 0.9
2018-Jan-22 06:00N 41°30' W 070°42'0 0.0 130 / 31022.5 3.0-1.9 0.9
2018-Jan-22 05:00N 41°30' W 070°42'0 0.0 140 / 21023.2 3.0-1.6 0.9
2018-Jan-22 04:00N 41°30' W 070°42'0 0.0 140 / 41023.0 2.6-1.5 0.9
2018-Jan-22 03:00N 41°30' W 070°42'0 0.0 160 / 31023.0 2.8-0.5 0.9
2018-Jan-22 02:00N 41°30' W 070°42'0 0.0 140 / 31022.8 2.5-0.5 1.0
2018-Jan-22 01:00N 41°30' W 070°42'0 0.0 160 / 21022.4 3.2-0.0 1.2
2018-Jan-22 00:00N 41°30' W 070°42'0 0.0 160 / 31022.3 3.4-0.4 1.2
2018-Jan-21 23:00N 41°30' W 070°42'0 0.0 210 / 21021.7 4.0-0.4 1.2
2018-Jan-21 22:00N 41°30' W 070°42'0 0.0 160 / 31021.2 4.4-0.9 1.2
2018-Jan-21 21:00N 41°30' W 070°42'0 0.0 210 / 11020.6 5.6-1.3 1.2
2018-Jan-21 20:00N 41°30' W 070°42'0 0.0 170 / 21020.2 5.9-1.1 1.1
2018-Jan-21 19:00N 41°30' W 070°42'0 0.0 230 / 31020.0 6.8-2.4 1.1
2018-Jan-21 18:00N 41°30' W 070°42'0 0.0 270 / 21019.7 5.6-2.4 0.8
2018-Jan-21 17:00N 41°30' W 070°42'0 0.0 300 / 51020.2 6.2-2.2 2.1
2018-Jan-21 16:00N 41°30' W 070°42'0 0.0 310 / 81021.0 5.0-2.4 1.8
2018-Jan-21 15:00N 41°30' W 070°42'7 7.5 300 / 91021.4 5.1-2.4 1.8
2018-Jan-21 14:00N 41°24' W 070°48'5 4.5 260 / 91020.8 3.6-0.8 2.8
2018-Jan-21 13:00N 41°24' W 070°54'1312.8 270 / 101019.7 4.1-1.3 3.4
2018-Jan-21 12:00N 41°12' W 071°00'6 6.0 280 / 121019.7 4.7-1.3 3.0
2018-Jan-21 11:00N 41°06' W 071°00'6 6.0 290 / 121018.9 5.8-0.7 5.2
2018-Jan-21 10:00N 41°00' W 071°00'6 6.0 280 / 111018.3 6.4-0.2 5.0
2018-Jan-21 09:00N 40°54' W 071°00'1212.0 290 / 111018.0 6.8 0.7 6.0
2018-Jan-21 08:00N 40°42' W 071°00'6 6.0 330 / 151017.3 7.5 0.1 6.8
2018-Jan-21 07:00N 40°36' W 071°00'6 6.0 320 / 141016.8 8.2 0.4 5.6
2018-Jan-21 06:00N 40°30' W 071°00'1212.0 320 / 141016.3 7.7 0.5 5.8
2018-Jan-21 05:00N 40°18' W 071°00'5 4.6 280 / 131016.4 7.5 1.7 6.1
2018-Jan-21 04:00N 40°18' W 071°06'1110.9 300 / 151016.3 7.9 1.4 7.1
2018-Jan-21 03:00N 40°12' W 071°18'1515.0 290 / 191016.3 8.8 1.6 8.1
2018-Jan-21 02:00N 40°06' W 071°36'1111.0 290 / 271016.4 9.2 1.5 8.6
2018-Jan-21 01:00N 40°00' W 071°48'1111.0 290 / 191016.0 9.4 1.5 8.9
2018-Jan-21 00:00N 39°54' W 072°00'1515.1 280 / 171015.6 9.3 3.4 9.5
2018-Jan-20 23:00N 39°48' W 072°18'9 9.2 250 / 211014.4 9.2 2.7 9.4
2018-Jan-20 22:00N 39°48' W 072°30'1111.0 250 / 211014.0 9.0 2.4 9.1
2018-Jan-20 21:00N 39°42' W 072°42'1515.1 240 / 221013.3 9.0 1.6 9.5
2018-Jan-20 20:00N 39°36' W 073°00'1111.0 240 / 161013.1 8.8 1.2 9.5
2018-Jan-20 19:00N 39°30' W 073°12'1111.0 240 / 151013.0 7.4 0.3 7.0
2018-Jan-20 18:00N 39°24' W 073°24'1111.1 230 / 201013.5 6.4-0.7 7.5
2018-Jan-20 17:00N 39°18' W 073°36'1515.2 230 / 171014.7 5.7-1.3 6.6
2018-Jan-20 16:00N 39°06' W 073°48'1312.9 230 / 171015.8 5.5-1.6 5.3
2018-Jan-20 15:00N 38°54' W 073°54'8 7.6 250 / 181016.7 5.9-1.7 6.2
2018-Jan-20 14:00N 38°48' W 074°00'1515.2 230 / 201016.7 6.1-2.1 6.9
2018-Jan-20 13:00N 38°36' W 074°12'1312.9 240 / 201016.5 6.1-1.2 7.6
2018-Jan-20 12:00N 38°24' W 074°18'1312.9 240 / 211016.8 6.2-2.8 7.7
2018-Jan-20 11:00N 38°12' W 074°24'1312.9 240 / 191016.8 6.7-1.6 8.1
2018-Jan-20 10:00N 38°00' W 074°30'1212.0 240 / 181016.8 7.3-1.8 7.3
2018-Jan-20 09:00N 37°48' W 074°30'1312.9 230 / 201016.9 7.9-1.1 7.8
2018-Jan-20 08:00N 37°36' W 074°36'1212.0 240 / 221017.8 8.8-1.3 9.2
2018-Jan-20 07:00N 37°24' W 074°36'1212.0 240 / 181018.6 9.1-1.9 8.9
2018-Jan-20 06:00N 37°12' W 074°36'1212.0 250 / 231018.9 10.0-0.214.3
2018-Jan-20 05:00N 37°00' W 074°36'1312.9 250 / 161019.6 10.6-1.516.8
2018-Jan-20 04:00N 36°48' W 074°42'1212.0 260 / 221020.0 11.3-1.818.6
2018-Jan-20 03:00N 36°36' W 074°42'1312.9 260 / 201020.5 11.9-1.019.5
2018-Jan-20 02:00N 36°24' W 074°36'1312.9 260 / 251020.6 12.4 1.118.5
2018-Jan-20 01:00N 36°12' W 074°42'6 6.0 250 / 191020.1 12.6-0.218.4
2018-Jan-20 00:00N 36°06' W 074°42'1212.0 240 / 231019.7 12.6-0.318.9
2018-Jan-19 23:00N 35°54' W 074°42'1212.0 240 / 231019.8 11.8 1.419.4
2018-Jan-19 22:00N 35°42' W 074°42'1212.0 240 / 231020.3 12.3 0.819.2
2018-Jan-19 21:00N 35°30' W 074°42'1313.0 240 / 231020.9 11.9 1.121.6
2018-Jan-19 20:00N 35°18' W 074°48'8 7.7 270 / 181021.2 11.4-4.123.7
2018-Jan-19 19:00N 35°12' W 074°54'10 9.8 280 / 141021.8 10.2-2.323.7
2018-Jan-19 18:00N 35°12' W 075°06'8 7.7 270 / 151021.9 9.3-3.223.1
2018-Jan-19 17:00N 35°18' W 075°00'5 4.9 280 / 181022.4 8.8-3.523.0
2018-Jan-19 16:00N 35°18' W 074°54'6 6.0 270 / 161023.5 7.6-2.322.6
2018-Jan-19 15:00N 35°24' W 074°54'8 7.7 290 / 181023.5 7.2-1.118.6
2018-Jan-19 14:00N 35°30' W 074°48'6 6.0 280 / 171022.9 7.4 0.820.6
2018-Jan-19 13:00N 35°36' W 074°48'1212.0 270 / 161022.1 7.9-0.919.2
2018-Jan-19 12:00N 35°48' W 074°48'0 0.0 270 / 131021.7 6.3 0.819.3
2018-Jan-19 11:00N 35°48' W 074°48'5 4.9 280 / 81021.2 6.4-0.719.3
2018-Jan-19 10:00N 35°48' W 074°54'5 4.9 290 / 151021.4 6.1-0.418.7
2018-Jan-19 09:00N 35°48' W 075°00'5 4.9 320 / 141021.8 3.7-3.415.5
2018-Jan-19 08:00N 35°48' W 075°06'8 7.7 290 / 141022.2 2.3-3.7 7.9
2018-Jan-19 07:00N 35°42' W 075°12'5 4.9 250 / 191022.6 1.7-4.9 7.5
2018-Jan-19 06:00N 35°42' W 075°18'5 4.9 280 / 171022.7 1.0-4.9 5.1
2018-Jan-19 05:00N 35°42' W 075°24'8 7.7 270 / 131022.7 1.0-5.5 4.5
2018-Jan-19 04:00N 35°36' W 075°18'1212.0 280 / 191023.1 1.2-5.4 4.9
2018-Jan-19 03:00N 35°24' W 075°18'5 4.9 290 / 181023.3 2.5-3.6 7.2
2018-Jan-19 02:00N 35°24' W 075°12'8 7.7 290 / 231022.0 2.7-5.1 7.5
2018-Jan-19 01:00N 35°30' W 075°18'1212.0 280 / 201021.9 3.0-5.8 6.7
2018-Jan-19 00:00N 35°42' W 075°18'8 7.7 280 / 281021.0 2.7-7.8 6.1
2018-Jan-18 23:00N 35°48' W 075°12'6 6.0 270 / 301020.9 3.0-6.4 7.4
2018-Jan-18 22:00N 35°54' W 075°12'6 6.0 270 / 201020.2 2.9-7.2 7.8
2018-Jan-18 21:00N 36°00' W 075°12'1111.4 300 / 201020.1 1.7-4.5 8.1
2018-Jan-18 20:00N 36°06' W 075°24'1212.0 270 / 211020.0 1.0-5.5 7.5
2018-Jan-18 19:00N 36°18' W 075°24'1312.9 310 / 201020.2 0.3-9.4 6.9
2018-Jan-18 18:00N 36°30' W 075°30'0 0.0 300 / 241020.5 -0.5-7.9 6.6
2018-Jan-18 17:00N 36°30' W 075°30'0 0.0 320 / 241021.0 -1.6-7.6 6.6
2018-Jan-18 16:00N 36°30' W 075°30'0 0.0 320 / 281020.3 -1.8-5.8 6.7
2018-Jan-18 15:00N 36°30' W 075°30'0 0.0 340 / 281020.9 -1.8-6.7 6.9
2018-Jan-18 14:00N 36°30' W 075°30'8 7.7 320 / 241020.2 -2.3-6.0 7.3
2018-Jan-18 13:00N 36°24' W 075°24'8 7.7 320 / 221019.3 -2.3-5.9 7.7
2018-Jan-18 12:00N 36°18' W 075°18'0 0.0 320 / 211018.2 -2.1-5.1 8.3
2018-Jan-18 11:00N 36°18' W 075°18'5 4.8 350 / 431018.1 -2.5-5.1 8.7
2018-Jan-18 10:00N 36°18' W 075°12'8 7.7 340 / 451018.0 -2.1-4.7 8.8
2018-Jan-18 09:00N 36°12' W 075°06'0 0.0 180 / 241016.6 -0.9-2.8 9.8
2018-Jan-18 08:00N 36°12' W 075°06'8 7.7 160 / 271015.7 -0.4-2.410.7
2018-Jan-18 07:00N 36°06' W 075°00'0 0.0 1015.3 0.2-1.414.4
2018-Jan-18 06:00N 36°06' W 075°00'8 7.7 030 / 301014.4 3.2 1.417.5
2018-Jan-18 05:00N 36°00' W 074°54'5 4.9 020 / 391013.7 6.0 4.219.9
2018-Jan-18 04:00N 36°00' W 074°48'8 7.7 010 / 341015.5 7.1 4.620.2
2018-Jan-18 03:00N 35°54' W 074°42'5 4.9 010 / 331016.8 9.7 5.820.2
2018-Jan-18 02:00N 35°54' W 074°36'8 7.7 020 / 291017.2 10.3 5.819.7
2018-Jan-18 01:00N 35°48' W 074°30'5 4.9 010 / 231017.6 10.9 7.123.0
2018-Jan-18 00:00N 35°48' W 074°36'1111.4 020 / 201019.0 10.2 5.719.6
2018-Jan-17 23:00N 35°54' W 074°48'6 6.0 010 / 281019.5 10.0 5.819.9
2018-Jan-17 22:00N 36°00' W 074°48'6 6.0 1019.5 9.7 5.720.3
2018-Jan-17 21:00N 35°54' W 074°48'8 7.7 030 / 171019.8 9.5 5.220.2
2018-Jan-17 20:00N 35°48' W 074°54'8 7.7 010 / 161021.1 9.8 5.119.6
2018-Jan-17 19:00N 35°42' W 074°48'6 6.0 020 / 191020.9 10.1 5.119.3
2018-Jan-17 18:00N 35°36' W 074°48'0 0.0 010 / 121021.8 10.0 4.018.4
2018-Jan-17 17:00N 35°36' W 074°48'1515.5 360 / 121023.2 11.1 3.618.3
2018-Jan-17 16:00N 35°48' W 074°36'6 6.0 010 / 111023.9 11.3 3.619.3
2018-Jan-17 15:00N 35°42' W 074°36'0 0.0 020 / 111025.0 10.9 2.518.4
2018-Jan-17 14:00N 35°42' W 074°36'0 0.0 1024.8 10.7 2.018.3
2018-Jan-17 13:00N 35°42' W 074°36'5 4.9 360 / 141024.1 11.0 2.318.2
2018-Jan-17 12:00N 35°42' W 074°42'0 0.0 340 / 191024.6 10.7 4.319.4
2018-Jan-17 11:00N 35°42' W 074°42'1313.0 320 / 101024.1 10.5 1.218.1
2018-Jan-17 10:00N 35°30' W 074°48'1212.0 340 / 141024.3 10.7 2.422.4
2018-Jan-17 09:00N 35°18' W 074°48'0 0.0 340 / 131024.3 11.0 1.623.3
2018-Jan-17 08:00N 35°18' W 074°48'8 7.7 320 / 141024.5 11.2 1.423.2
2018-Jan-17 07:00N 35°12' W 074°54'1615.5 330 / 111024.8 10.6 3.523.7
2018-Jan-17 06:00N 35°00' W 075°06'8 7.8 330 / 91024.9 12.6 2.423.8
2018-Jan-17 05:00N 34°54' W 075°12'6 6.0 330 / 71025.8 11.7 2.823.9
2018-Jan-17 04:00N 34°48' W 075°12'8 7.8 320 / 91027.1 12.0 3.323.9
2018-Jan-17 03:00N 34°42' W 075°18'1211.6 310 / 81027.4 12.2 4.223.8
2018-Jan-17 02:00N 34°36' W 075°30'8 7.8 1027.5 12.3 5.123.8
2018-Jan-17 01:00N 34°30' W 075°36'8 7.8 350 / 61027.9 12.4 4.823.8
2018-Jan-17 00:00N 34°36' W 075°42'8 7.8 330 / 91027.9 11.7 5.222.7
2018-Jan-16 23:00N 34°42' W 075°48'8 7.8 350 / 101027.9 10.4 3.421.2
2018-Jan-16 22:00N 34°48' W 075°54'0 0.0 340 / 121027.7 9.6 4.320.6
2018-Jan-16 21:00N 34°48' W 075°54'0 0.0 330 / 101027.5 10.6 4.520.5
2018-Jan-16 20:00N 34°48' W 075°54'23 1.8 1027.3 10.0 3.720.4
2018-Jan-16 07:00N 35°00' W 075°30'8 7.8 350 / 161029.2 5.0 2.912.4
2018-Jan-16 06:00N 35°06' W 075°36'0 0.0 350 / 171029.1 3.7 1.810.5
2018-Jan-16 05:00N 35°06' W 075°36'8 7.8 350 / 201029.3 3.1 0.611.3
2018-Jan-16 04:00N 35°00' W 075°42'1211.5 350 / 201030.4 4.5 1.415.8
2018-Jan-16 03:00N 34°54' W 075°54'5 4.9 340 / 161030.6 5.1 2.018.1
2018-Jan-16 02:00N 34°54' W 076°00'1211.5 350 / 191030.3 5.5 1.818.2
2018-Jan-16 01:00N 34°48' W 076°12'0 0.0 350 / 191030.1 5.3 0.216.2
2018-Jan-16 00:00N 34°48' W 076°12'10 9.9 350 / 281029.2 5.8 0.215.9
2018-Jan-15 23:00N 34°48' W 076°00'5 4.9 350 / 201029.3 6.8 1.917.9
2018-Jan-15 22:00N 34°48' W 075°54'5 4.9 1028.2 7.6 3.619.5
2018-Jan-15 21:00N 34°48' W 075°48'5 4.9 360 / 271027.4 7.8 4.721.1
2018-Jan-15 20:00N 34°48' W 075°42'23 5.8 360 / 181027.8 6.8 5.122.0
2018-Jan-15 16:00N 35°00' W 075°18'0 0.0 360 / 351028.1 7.7 6.123.0
2018-Jan-15 15:00N 35°00' W 075°18'8 7.8 360 / 301028.1 8.3 6.623.0
2018-Jan-15 14:00N 35°06' W 075°12'8 7.8 340 / 341027.6 9.6 7.223.4
2018-Jan-15 13:00N 35°12' W 075°06'   360 / 281026.3 13.5 8.723.2

Dump ship's entire track history